createdAt,value
2018-08-28T00:02:13.213Z,100.00
2018-08-28T00:04:42.198Z,100.00
2018-08-28T00:07:10.889Z,100.00
2018-08-28T00:09:39.808Z,100.00
2018-08-28T00:12:08.741Z,100.00
2018-08-28T00:14:38.450Z,100.00
2018-08-28T00:17:07.968Z,100.00
2018-08-28T00:19:38.162Z,100.00
2018-08-28T00:22:07.461Z,100.00
2018-08-28T00:24:37.426Z,100.00
2018-08-28T00:27:06.474Z,100.00
2018-08-28T00:29:36.540Z,100.00
2018-08-28T00:32:05.598Z,100.00
2018-08-28T00:34:35.316Z,100.00
2018-08-28T00:37:04.501Z,100.00
2018-08-28T00:39:33.693Z,100.00
2018-08-28T00:42:02.836Z,100.00
2018-08-28T00:44:32.294Z,100.00
2018-08-28T00:47:01.644Z,100.00
2018-08-28T00:49:30.897Z,100.00
2018-08-28T00:52:00.140Z,100.00
2018-08-28T00:54:29.393Z,100.00
2018-08-28T00:56:58.698Z,100.00
2018-08-28T00:59:27.892Z,100.00
2018-08-28T01:01:56.990Z,100.00
2018-08-28T01:04:26.100Z,100.00
2018-08-28T01:06:55.127Z,100.00
2018-08-28T01:09:24.583Z,100.00
2018-08-28T01:11:53.725Z,100.00
2018-08-28T01:14:22.821Z,100.00
2018-08-28T01:16:52.170Z,100.00
2018-08-28T01:19:21.066Z,100.00
2018-08-28T01:21:50.165Z,100.00
2018-08-28T01:24:19.362Z,100.00
2018-08-28T01:26:48.457Z,100.00
2018-08-28T01:29:17.805Z,100.00
2018-08-28T01:31:46.852Z,100.00
2018-08-28T01:34:16.254Z,100.00
2018-08-28T01:36:45.453Z,100.00
2018-08-28T01:39:14.702Z,100.00
2018-08-28T01:41:43.794Z,100.00
2018-08-28T01:44:13.094Z,100.00
2018-08-28T01:46:42.552Z,100.00
2018-08-28T01:49:11.799Z,100.00
2018-08-28T01:51:41.008Z,100.00
2018-08-28T01:54:10.199Z,100.00
2018-08-28T01:56:38.666Z,100.00
2018-08-28T01:59:07.096Z,100.00
2018-08-28T02:01:36.705Z,100.00
2018-08-28T02:04:05.182Z,100.00
2018-08-28T02:06:33.593Z,100.00
2018-08-28T02:09:02.103Z,100.00
2018-08-28T02:13:57.087Z,100.00
2018-08-28T02:16:25.489Z,100.00
2018-08-28T02:18:53.949Z,100.00
2018-08-28T02:21:22.488Z,100.00
2018-08-28T02:23:51.205Z,100.00
2018-08-28T02:26:19.607Z,100.00
2018-08-28T02:28:48.085Z,100.00
2018-08-28T02:31:16.594Z,100.00
2018-08-28T02:33:45.123Z,100.00
2018-08-28T02:36:13.538Z,100.00
2018-08-28T02:38:42.016Z,100.00
2018-08-28T02:41:10.567Z,100.00
2018-08-28T02:43:38.970Z,100.00
2018-08-28T02:46:07.543Z,100.00
2018-08-28T02:48:36.354Z,100.00
2018-08-28T02:51:04.866Z,100.00
2018-08-28T02:53:33.342Z,100.00
2018-08-28T02:56:01.774Z,100.00
2018-08-28T02:58:30.265Z,100.00
2018-08-28T03:00:58.893Z,100.00
2018-08-28T03:03:27.327Z,100.00
2018-08-28T03:05:55.833Z,100.00
2018-08-28T03:08:24.302Z,100.00
2018-08-28T03:10:52.706Z,100.00
2018-08-28T03:13:21.154Z,100.00
2018-08-28T03:15:49.931Z,100.00
2018-08-28T03:18:18.414Z,100.00
2018-08-28T03:20:46.833Z,100.00
2018-08-28T03:23:15.269Z,100.00
2018-08-28T03:25:43.677Z,100.00
2018-08-28T03:28:12.146Z,100.00
2018-08-28T03:30:40.651Z,100.00
2018-08-28T03:40:08.301Z,100.00
2018-08-28T03:42:37.625Z,100.00
2018-08-28T03:45:06.290Z,100.00
2018-08-28T03:47:34.729Z,100.00
2018-08-28T03:50:03.212Z,100.00
2018-08-28T03:52:32.085Z,100.00
2018-08-28T03:55:00.595Z,100.00
2018-08-28T03:57:29.049Z,100.00
2018-08-28T03:59:57.501Z,100.00
2018-08-28T04:02:25.920Z,100.00
2018-08-28T04:04:54.302Z,100.00
2018-08-28T04:07:22.806Z,100.00
2018-08-28T04:09:51.275Z,100.00
2018-08-28T04:12:19.785Z,100.00
2018-08-28T04:14:48.186Z,100.00
2018-08-28T04:17:16.621Z,100.00
2018-08-28T04:19:45.058Z,100.00
2018-08-28T04:22:13.565Z,100.00
2018-08-28T04:24:42.101Z,100.00
2018-08-28T04:27:10.538Z,100.00
2018-08-28T04:29:38.926Z,100.00
2018-08-28T04:32:07.397Z,100.00
2018-08-28T04:34:36.273Z,100.00
2018-08-28T04:37:04.714Z,100.00
2018-08-28T04:39:33.153Z,100.00
2018-08-28T04:42:01.735Z,100.00
2018-08-28T04:44:30.106Z,100.00
2018-08-28T04:46:58.509Z,100.00
2018-08-28T04:49:26.950Z,100.00
2018-08-28T04:51:55.482Z,100.00
2018-08-28T04:54:23.961Z,100.00
2018-08-28T04:56:52.418Z,100.00
2018-08-28T04:59:20.821Z,100.00
2018-08-28T05:01:49.312Z,100.00
2018-08-28T05:04:17.926Z,100.00
2018-08-28T05:06:46.410Z,100.00
2018-08-28T05:09:14.902Z,100.00
2018-08-28T05:11:43.365Z,100.00
2018-08-28T05:14:12.030Z,100.00
2018-08-28T05:16:40.425Z,100.00
2018-08-28T05:19:08.930Z,100.00
2018-08-28T05:21:37.926Z,100.00
2018-08-28T05:24:06.438Z,100.00
2018-08-28T05:26:34.868Z,100.00
2018-08-28T05:29:03.389Z,100.00
2018-08-28T05:31:31.862Z,100.00
2018-08-28T05:34:00.377Z,100.00
2018-08-28T05:36:28.802Z,100.00
2018-08-28T05:38:57.237Z,100.00
2018-08-28T05:41:25.664Z,100.00
2018-08-28T05:43:54.154Z,100.00
2018-08-28T05:46:22.642Z,100.00
2018-08-28T05:48:51.390Z,100.00
2018-08-28T05:51:19.800Z,100.00
2018-08-28T05:53:48.329Z,100.00
2018-08-28T05:56:16.880Z,100.00
2018-08-28T05:58:45.285Z,100.00
2018-08-28T06:01:13.722Z,100.00
2018-08-28T06:03:42.214Z,100.00
2018-08-28T06:06:10.787Z,100.00
2018-08-28T06:08:39.364Z,100.00
2018-08-28T06:11:07.780Z,100.00
2018-08-28T06:13:36.714Z,100.00
2018-08-28T06:16:05.290Z,100.00
2018-08-28T06:18:33.777Z,100.00
2018-08-28T06:21:02.237Z,100.00
2018-08-28T06:23:30.665Z,100.00
2018-08-28T06:25:59.426Z,100.00
2018-08-28T06:28:28.139Z,100.00
2018-08-28T06:30:56.918Z,100.00
2018-08-28T06:33:25.604Z,100.00
2018-08-28T06:35:55.862Z,100.00
2018-08-28T06:38:24.341Z,100.00
2018-08-28T06:40:52.876Z,100.00
2018-08-28T06:43:21.346Z,100.00
2018-08-28T06:45:50.013Z,100.00
2018-08-28T06:48:18.473Z,100.00
2018-08-28T06:50:46.965Z,100.00
2018-08-28T06:53:15.437Z,100.00
2018-08-28T06:55:45.397Z,99.31
2018-08-28T06:58:13.833Z,98.40
2018-08-28T07:00:43.196Z,96.82
2018-08-28T07:03:12.089Z,96.28
2018-08-28T07:05:41.098Z,94.52
2018-08-28T07:08:09.891Z,92.63
2018-08-28T07:10:38.763Z,91.59
2018-08-28T07:13:07.347Z,91.00
2018-08-28T07:15:36.045Z,91.29
2018-08-28T07:18:04.574Z,91.56
2018-08-28T07:20:33.433Z,91.25
2018-08-28T07:23:01.990Z,91.95
2018-08-28T07:25:30.411Z,91.16
2018-08-28T07:27:58.982Z,91.51
2018-08-28T07:30:27.472Z,91.30
2018-08-28T07:32:57.493Z,89.83
2018-08-28T07:35:26.461Z,89.46
2018-08-28T07:37:55.732Z,89.82
2018-08-28T07:40:24.599Z,88.56
2018-08-28T07:42:53.392Z,89.30
2018-08-28T07:45:21.959Z,88.68
2018-08-28T07:47:50.471Z,89.03
2018-08-28T07:50:19.267Z,87.44
2018-08-28T07:52:47.709Z,86.42
2018-08-28T07:55:16.190Z,86.38
2018-08-28T07:57:44.741Z,85.44
2018-08-28T08:00:13.257Z,85.81
2018-08-28T08:02:42.177Z,84.91
2018-08-28T08:05:10.561Z,85.26
2018-08-28T08:07:39.618Z,83.13
2018-08-28T08:10:08.266Z,83.43
2018-08-28T08:12:37.277Z,82.73
2018-08-28T08:15:05.824Z,82.94
2018-08-28T08:17:34.254Z,82.37
2018-08-28T08:20:02.869Z,82.04
2018-08-28T08:22:31.349Z,81.75
2018-08-28T08:24:59.826Z,81.67
2018-08-28T08:27:29.150Z,80.87
2018-08-28T08:29:57.707Z,80.78
2018-08-28T08:32:26.170Z,80.09
2018-08-28T08:34:55.040Z,78.96
2018-08-28T08:37:26.186Z,78.08
2018-08-28T08:39:54.749Z,78.43
2018-08-28T08:42:23.321Z,76.56
2018-08-28T08:44:52.316Z,76.61
2018-08-28T08:47:21.217Z,76.14
2018-08-28T08:49:50.065Z,75.09
2018-08-28T08:52:18.751Z,74.87
2018-08-28T08:54:47.193Z,73.96
2018-08-28T08:57:15.677Z,74.13
2018-08-28T08:59:44.605Z,72.66
2018-08-28T09:02:13.601Z,72.18
2018-08-28T09:04:42.343Z,70.03
2018-08-28T09:07:11.201Z,69.56
2018-08-28T09:09:39.669Z,69.49
2018-08-28T09:12:08.153Z,68.78
2018-08-28T09:14:36.862Z,68.49
2018-08-28T09:17:05.285Z,67.69
2018-08-28T09:19:33.753Z,67.12
2018-08-28T09:22:02.245Z,67.51
2018-08-28T09:24:30.702Z,66.79
2018-08-28T09:26:59.333Z,66.13
2018-08-28T09:29:27.781Z,65.34
2018-08-28T09:31:56.251Z,65.01
2018-08-28T09:34:24.741Z,64.00
2018-08-28T09:36:53.422Z,63.13
2018-08-28T09:39:21.933Z,63.04
2018-08-28T09:41:50.430Z,62.36
2018-08-28T09:44:18.873Z,60.99
2018-08-28T09:46:47.253Z,58.14
2018-08-28T09:49:15.729Z,56.29
2018-08-28T09:51:44.201Z,55.07
2018-08-28T09:54:12.713Z,54.13
2018-08-28T09:56:41.287Z,52.71
2018-08-28T09:59:09.928Z,49.92
2018-08-28T10:01:44.307Z,48.11
2018-08-28T10:04:13.686Z,48.36
2018-08-28T10:06:42.145Z,48.38
2018-08-28T10:09:15.838Z,46.36
2018-08-28T10:11:44.638Z,46.84
2018-08-28T10:14:13.398Z,45.67
2018-08-28T10:16:41.821Z,43.03
2018-08-28T10:19:10.407Z,43.31
2018-08-28T10:21:39.288Z,42.83
2018-08-28T10:24:07.981Z,43.35
2018-08-28T10:26:36.833Z,43.16
2018-08-28T10:29:05.309Z,42.95
2018-08-28T10:31:33.730Z,42.86
2018-08-28T10:34:02.233Z,39.94
2018-08-28T10:36:30.706Z,38.71
2018-08-28T10:38:59.241Z,40.08
2018-08-28T10:41:27.637Z,38.46
2018-08-28T10:43:56.085Z,38.15
2018-08-28T10:46:24.656Z,37.50
2018-08-28T10:48:53.009Z,35.62
2018-08-28T10:51:21.562Z,35.60
2018-08-28T10:53:50.071Z,35.03
2018-08-28T10:56:18.593Z,34.55
2018-08-28T10:58:47.115Z,34.75
2018-08-28T11:01:15.619Z,34.46
2018-08-28T11:03:44.126Z,32.06
2018-08-28T11:06:12.605Z,33.29
2018-08-28T11:08:41.087Z,32.79
2018-08-28T11:11:10.505Z,32.00
2018-08-28T11:13:39.129Z,31.85
2018-08-28T11:16:07.844Z,32.12
2018-08-28T11:18:37.570Z,30.72
2018-08-28T11:21:06.061Z,30.02
2018-08-28T11:23:34.509Z,29.47
2018-08-28T11:26:03.026Z,27.47
2018-08-28T11:28:31.481Z,29.58
2018-08-28T11:30:59.969Z,27.45
2018-08-28T11:33:28.438Z,26.60
2018-08-28T11:35:56.937Z,25.10
2018-08-28T11:38:25.452Z,26.60
2018-08-28T11:40:53.952Z,26.14
2018-08-28T11:43:22.394Z,24.98
2018-08-28T11:45:51.181Z,24.74
2018-08-28T11:48:19.637Z,24.30
2018-08-28T11:50:48.125Z,25.70
2018-08-28T11:53:16.743Z,24.04
2018-08-28T11:55:45.193Z,24.14
2018-08-28T11:58:13.657Z,23.99
2018-08-28T12:00:42.244Z,23.74
2018-08-28T12:03:10.711Z,26.41
2018-08-28T12:05:39.230Z,27.26
2018-08-28T12:08:07.681Z,24.72
2018-08-28T12:10:36.744Z,23.58
2018-08-28T12:13:05.253Z,22.46
2018-08-28T12:15:34.113Z,22.24
2018-08-28T12:18:02.570Z,21.96
2018-08-28T12:20:31.080Z,20.01
2018-08-28T12:22:59.513Z,20.52
2018-08-28T12:25:27.981Z,19.84
2018-08-28T12:27:56.469Z,18.75
2018-08-28T12:30:24.933Z,19.11
2018-08-28T12:32:53.433Z,19.41
2018-08-28T12:35:21.906Z,17.44
2018-08-28T12:37:50.490Z,18.32
2018-08-28T12:40:18.974Z,16.74
2018-08-28T12:42:47.390Z,16.88
2018-08-28T12:45:15.841Z,16.72
2018-08-28T12:47:44.351Z,17.86
2018-08-28T12:50:12.857Z,16.54
2018-08-28T12:52:41.298Z,16.58
2018-08-28T12:55:09.818Z,15.92
2018-08-28T12:57:40.464Z,15.16
2018-08-28T13:00:08.965Z,15.26
2018-08-28T13:02:38.257Z,15.00
2018-08-28T13:05:06.905Z,16.19
2018-08-28T13:07:35.616Z,16.85
2018-08-28T13:10:04.282Z,15.50
2018-08-28T13:12:32.681Z,14.94
2018-08-28T13:15:01.082Z,15.03
2018-08-28T13:17:29.622Z,14.29
2018-08-28T13:19:58.045Z,15.07
2018-08-28T13:22:26.544Z,14.95
2018-08-28T13:24:55.430Z,16.04
2018-08-28T13:27:23.955Z,16.16
2018-08-28T13:29:52.513Z,15.66
2018-08-28T13:32:20.990Z,15.82
2018-08-28T13:34:49.448Z,15.46
2018-08-28T13:37:17.975Z,15.72
2018-08-28T13:39:46.409Z,14.79
2018-08-28T13:42:14.898Z,15.37
2018-08-28T13:44:43.410Z,14.04
2018-08-28T13:47:11.885Z,13.69
2018-08-28T13:49:41.544Z,14.48
2018-08-28T13:52:09.948Z,14.54
2018-08-28T13:54:39.478Z,14.34
2018-08-28T13:57:08.533Z,13.49
2018-08-28T13:59:38.037Z,12.52
2018-08-28T14:02:06.473Z,12.33
2018-08-28T14:04:34.982Z,13.10
2018-08-28T14:07:03.375Z,13.05
2018-08-28T14:09:31.819Z,13.34
2018-08-28T14:12:00.341Z,13.10
2018-08-28T14:14:29.170Z,13.02
2018-08-28T14:16:57.811Z,11.92
2018-08-28T14:19:26.319Z,11.97
2018-08-28T14:21:54.922Z,11.26
2018-08-28T14:24:23.661Z,10.06
2018-08-28T14:26:52.698Z,10.41
2018-08-28T14:29:21.322Z,11.31
2018-08-28T14:31:51.865Z,12.07
2018-08-28T14:34:20.399Z,13.08
2018-08-28T14:36:48.949Z,12.92
2018-08-28T14:39:17.473Z,14.17
2018-08-28T14:41:45.997Z,13.76
2018-08-28T14:44:14.426Z,13.74
2018-08-28T14:46:42.893Z,13.98
2018-08-28T14:49:11.357Z,14.56
2018-08-28T14:51:40.006Z,14.58
2018-08-28T14:54:08.526Z,14.52
2018-08-28T14:56:37.656Z,15.16
2018-08-28T14:59:06.153Z,15.79
2018-08-28T15:01:34.543Z,16.15
2018-08-28T15:04:03.030Z,15.90
2018-08-28T15:06:31.569Z,16.64
2018-08-28T15:09:02.579Z,16.94
2018-08-28T15:11:31.466Z,17.11
2018-08-28T15:14:00.165Z,15.12
2018-08-28T15:16:28.790Z,16.13
2018-08-28T15:18:57.395Z,16.00
2018-08-28T15:21:26.241Z,16.02
2018-08-28T15:23:55.179Z,15.60
2018-08-28T15:26:24.318Z,16.66
2018-08-28T15:28:53.374Z,16.07
2018-08-28T15:31:22.050Z,16.09
2018-08-28T15:33:50.534Z,15.54
2018-08-28T15:36:19.750Z,15.19
2018-08-28T15:38:48.381Z,15.46
2018-08-28T15:41:16.936Z,14.88
2018-08-28T15:43:45.698Z,14.97
2018-08-28T15:46:14.109Z,14.95
2018-08-28T15:48:42.873Z,15.74
2018-08-28T15:51:11.365Z,16.32
2018-08-28T15:53:39.860Z,16.55
2018-08-28T15:56:08.414Z,17.60
2018-08-28T15:58:37.135Z,18.83
2018-08-28T16:01:05.838Z,18.80
2018-08-28T16:03:34.246Z,20.25
2018-08-28T16:06:02.737Z,20.79
2018-08-28T16:08:31.367Z,20.55
2018-08-28T16:10:59.825Z,20.64
2018-08-28T16:13:28.282Z,19.06
2018-08-28T16:15:57.050Z,18.72
2018-08-28T16:18:25.518Z,19.76
2018-08-28T16:20:54.114Z,20.87
2018-08-28T16:23:27.834Z,22.68
2018-08-28T16:25:56.365Z,23.35
2018-08-28T16:28:24.786Z,21.48
2018-08-28T16:30:53.314Z,22.50
2018-08-28T16:33:22.089Z,24.54
2018-08-28T16:35:50.938Z,25.44
2018-08-28T16:38:19.405Z,26.68
2018-08-28T16:40:47.973Z,28.08
2018-08-28T16:43:16.618Z,27.76
2018-08-28T16:45:45.082Z,28.35
2018-08-28T16:48:14.717Z,28.43
2018-08-28T16:50:43.165Z,28.88
2018-08-28T16:53:11.894Z,30.25
2018-08-28T16:55:40.353Z,31.10
2018-08-28T16:58:08.954Z,31.42
2018-08-28T17:00:37.657Z,32.00
2018-08-28T17:03:06.141Z,31.84
2018-08-28T17:05:34.541Z,32.33
2018-08-28T17:08:03.254Z,31.82
2018-08-28T17:10:31.782Z,32.14
2018-08-28T17:13:00.273Z,32.76
2018-08-28T17:15:28.983Z,32.06
2018-08-28T17:17:58.164Z,31.79
2018-08-28T17:20:26.844Z,31.27
2018-08-28T17:22:55.260Z,31.17
2018-08-28T17:25:23.939Z,32.16
2018-08-28T17:27:52.525Z,32.72
2018-08-28T17:30:21.203Z,32.55
2018-08-28T17:32:50.285Z,34.25
2018-08-28T17:35:18.806Z,33.31
2018-08-28T17:37:47.570Z,34.50
2018-08-28T17:40:16.658Z,35.54
2018-08-28T17:42:45.272Z,37.12
2018-08-28T17:45:13.853Z,38.74
2018-08-28T17:47:43.464Z,39.64
2018-08-28T17:50:12.424Z,41.08
2018-08-28T17:52:40.878Z,41.67
2018-08-28T17:55:09.838Z,43.61
2018-08-28T17:57:39.306Z,44.47
2018-08-28T18:00:08.090Z,45.57
2018-08-28T18:02:37.053Z,46.32
2018-08-28T18:05:05.528Z,47.45
2018-08-28T18:07:33.978Z,48.22
2018-08-28T18:10:02.835Z,48.71
2018-08-28T18:12:31.353Z,49.22
2018-08-28T18:15:00.265Z,49.82
2018-08-28T18:17:28.878Z,50.11
2018-08-28T18:19:57.469Z,51.15
2018-08-28T18:22:26.135Z,51.28
2018-08-28T18:24:55.791Z,52.14
2018-08-28T18:27:24.465Z,52.92
2018-08-28T18:29:52.922Z,54.42
2018-08-28T18:32:21.430Z,55.83
2018-08-28T18:34:50.063Z,55.47
2018-08-28T18:37:18.629Z,57.47
2018-08-28T18:39:47.295Z,56.84
2018-08-28T18:42:15.762Z,57.78
2018-08-28T18:44:44.291Z,58.15
2018-08-28T18:47:12.712Z,58.63
2018-08-28T18:49:41.251Z,58.93
2018-08-28T18:52:09.657Z,58.98
2018-08-28T18:54:38.861Z,59.13
2018-08-28T18:57:07.346Z,60.15
2018-08-28T18:59:36.000Z,60.47
2018-08-28T19:02:04.577Z,61.08
2018-08-28T19:04:33.010Z,61.41
2018-08-28T19:07:01.657Z,61.79
2018-08-28T19:09:30.084Z,62.42
2018-08-28T19:11:58.634Z,62.64
2018-08-28T19:14:27.334Z,63.63
2018-08-28T19:16:55.966Z,63.38
2018-08-28T19:19:24.398Z,63.14
2018-08-28T19:21:52.986Z,64.10
2018-08-28T19:24:21.478Z,63.63
2018-08-28T19:26:50.006Z,64.01
2018-08-28T19:29:18.741Z,63.75
2018-08-28T19:31:47.402Z,63.96
2018-08-28T19:34:16.642Z,64.77
2018-08-28T19:36:45.086Z,63.46
2018-08-28T19:39:13.830Z,64.06
2018-08-28T19:41:42.258Z,64.32
2018-08-28T19:44:10.908Z,64.33
2018-08-28T19:46:39.370Z,64.47
2018-08-28T19:49:07.883Z,65.55
2018-08-28T19:51:36.474Z,65.70
2018-08-28T19:54:05.442Z,66.92
2018-08-28T19:56:33.976Z,67.79
2018-08-28T19:59:03.020Z,67.79
2018-08-28T20:01:31.519Z,68.97
2018-08-28T20:04:00.039Z,69.44
2018-08-28T20:06:28.492Z,70.23
2018-08-28T20:08:57.070Z,70.19
2018-08-28T20:11:25.686Z,70.00
2018-08-28T20:13:54.149Z,70.43
2018-08-28T20:16:22.987Z,70.88
2018-08-28T20:18:51.414Z,71.93
2018-08-28T20:21:19.893Z,72.11
2018-08-28T20:23:48.638Z,72.39
2018-08-28T20:26:17.102Z,72.95
2018-08-28T20:28:45.577Z,73.38
2018-08-28T20:31:14.066Z,74.18
2018-08-28T20:33:42.698Z,74.39
2018-08-28T20:36:11.165Z,75.50
2018-08-28T20:38:39.686Z,75.92
2018-08-28T20:41:08.188Z,76.16
2018-08-28T20:43:37.035Z,76.34
2018-08-28T20:46:05.574Z,77.15
2018-08-28T20:48:34.087Z,76.90
2018-08-28T20:51:02.617Z,76.67
2018-08-28T20:53:31.189Z,76.38
2018-08-28T20:55:59.689Z,76.56
2018-08-28T20:58:28.189Z,76.77
2018-08-28T21:00:56.830Z,77.49
2018-08-28T21:03:25.234Z,78.05
2018-08-28T21:05:53.762Z,78.83
2018-08-28T21:08:22.211Z,79.14
2018-08-28T21:10:50.753Z,79.73
2018-08-28T21:13:19.435Z,79.63
2018-08-28T21:15:47.883Z,79.10
2018-08-28T21:18:16.592Z,79.62
2018-08-28T21:20:45.018Z,79.71
2018-08-28T21:23:13.723Z,80.17
2018-08-28T21:25:42.264Z,80.51
2018-08-28T21:28:10.770Z,81.48
2018-08-28T21:30:39.354Z,81.34
2018-08-28T21:33:07.887Z,81.90
2018-08-28T21:35:36.809Z,82.35
2018-08-28T21:38:05.264Z,83.01
2018-08-28T21:40:33.837Z,83.22
2018-08-28T21:45:24.234Z,83.92
2018-08-28T21:47:52.751Z,84.39
2018-08-28T21:50:21.201Z,83.42
2018-08-28T21:52:49.650Z,83.28
2018-08-28T21:55:18.230Z,83.83
2018-08-28T21:57:46.749Z,84.56
2018-08-28T22:00:15.251Z,84.65
2018-08-28T22:02:43.689Z,85.55
2018-08-28T22:05:12.254Z,85.55
2018-08-28T22:07:41.966Z,85.81
2018-08-28T22:10:10.733Z,86.12
2018-08-28T22:12:40.091Z,86.35
2018-08-28T22:15:13.744Z,86.30
2018-08-28T22:17:42.862Z,86.75
2018-08-28T22:20:11.418Z,87.53
2018-08-28T22:22:39.844Z,88.16
2018-08-28T22:25:08.254Z,88.94
2018-08-28T22:27:37.792Z,89.09
2018-08-28T22:30:07.703Z,89.42
2018-08-28T22:32:36.442Z,89.71
2018-08-28T22:35:05.074Z,89.28
2018-08-28T22:37:33.699Z,90.23
2018-08-28T22:40:02.149Z,89.91
2018-08-28T22:42:30.549Z,90.70
2018-08-28T22:44:59.018Z,91.73
2018-08-28T22:47:27.509Z,92.08
2018-08-28T22:49:55.989Z,92.18
2018-08-28T22:52:24.478Z,92.99
2018-08-28T22:54:53.305Z,93.17
2018-08-28T22:57:21.833Z,93.91
2018-08-28T22:59:50.325Z,94.10
2018-08-28T23:02:18.805Z,94.01
2018-08-28T23:04:47.261Z,94.16
2018-08-28T23:07:15.674Z,94.08
2018-08-28T23:09:44.150Z,94.60
2018-08-28T23:12:12.555Z,94.55
2018-08-28T23:14:41.024Z,95.32
2018-08-28T23:17:09.481Z,95.52
2018-08-28T23:19:38.509Z,96.12
2018-08-28T23:22:06.985Z,96.00
2018-08-28T23:24:35.426Z,96.33
2018-08-28T23:27:03.965Z,96.57
2018-08-28T23:29:32.334Z,97.14
2018-08-28T23:32:00.961Z,97.48
2018-08-28T23:34:29.369Z,97.06
2018-08-28T23:36:57.858Z,97.79
2018-08-28T23:39:26.350Z,98.27
2018-08-28T23:41:54.866Z,98.79
2018-08-28T23:44:23.325Z,99.56
2018-08-28T23:46:51.762Z,99.52
2018-08-28T23:49:20.263Z,99.86
2018-08-28T23:51:48.730Z,100.00
2018-08-28T23:54:17.229Z,100.00
2018-08-28T23:56:45.689Z,100.00
2018-08-28T23:59:14.355Z,100.00
